createdAt,value
2023-01-11T00:02:09.247Z,101886.20
2023-01-11T00:04:41.646Z,101888.04
2023-01-11T00:07:13.535Z,101879.52
2023-01-11T00:09:47.138Z,101866.91
2023-01-11T00:12:19.217Z,101877.97
2023-01-11T00:14:51.285Z,101879.72
2023-01-11T00:17:23.255Z,101872.09
2023-01-11T00:19:55.296Z,101875.72
2023-01-11T00:22:27.380Z,101884.58
2023-01-11T00:24:59.405Z,101862.47
2023-01-11T00:27:33.103Z,101866.94
2023-01-11T00:30:05.401Z,101869.58
2023-01-11T00:32:37.497Z,101881.78
2023-01-11T00:35:09.970Z,101874.25
2023-01-11T00:37:42.053Z,101882.41
2023-01-11T00:40:14.270Z,101882.41
2023-01-11T00:43:03.840Z,101883.63
2023-01-11T00:45:53.657Z,101879.61
2023-01-11T00:48:25.595Z,101882.58
2023-01-11T00:50:59.621Z,101875.14
2023-01-11T00:53:31.619Z,101879.42
2023-01-11T00:56:03.931Z,101887.75
2023-01-11T00:58:35.936Z,101886.64
2023-01-11T01:01:09.104Z,101874.25
2023-01-11T01:03:41.084Z,101874.34
2023-01-11T01:06:12.965Z,101877.07
2023-01-11T01:08:45.331Z,101871.09
2023-01-11T01:11:17.348Z,101862.58
2023-01-11T01:14:06.843Z,101864.36
2023-01-11T01:16:39.121Z,101865.41
2023-01-11T01:19:11.355Z,101867.85
2023-01-11T01:21:43.643Z,101865.69
2023-01-11T01:24:15.928Z,101874.08
2023-01-11T01:26:48.304Z,101876.62
2023-01-11T01:29:20.689Z,101868.23
2023-01-11T01:31:52.832Z,101856.28
2023-01-11T01:34:24.824Z,101852.88
2023-01-11T01:36:57.369Z,101858.20
2023-01-11T01:39:29.796Z,101861.73
2023-01-11T01:42:02.350Z,101852.60
2023-01-11T01:44:57.157Z,101855.57
2023-01-11T01:47:35.097Z,101860.66
2023-01-11T01:50:10.028Z,101854.02
2023-01-11T01:52:43.733Z,101849.78
2023-01-11T01:55:18.925Z,101853.31
2023-01-11T01:57:52.141Z,101851.71
2023-01-11T02:00:24.164Z,101853.59
2023-01-11T02:02:58.722Z,101849.27
2023-01-11T02:05:31.113Z,101855.42
2023-01-11T02:08:05.950Z,101851.38
2023-01-11T02:10:39.007Z,101836.82
2023-01-11T02:13:14.563Z,101829.47
2023-01-11T02:15:47.016Z,101837.95
2023-01-11T02:18:20.684Z,101849.44
2023-01-11T02:20:58.200Z,101826.03
2023-01-11T02:24:00.665Z,101831.92
2023-01-11T02:26:35.747Z,101839.36
2023-01-11T02:29:25.472Z,101837.16
2023-01-11T02:32:22.991Z,101829.38
2023-01-11T02:35:09.462Z,101836.82
2023-01-11T02:37:53.238Z,101834.19
2023-01-11T02:40:40.334Z,101830.75
2023-01-11T02:43:38.700Z,101812.00
2023-01-11T02:46:19.485Z,101822.27
2023-01-11T02:48:54.852Z,101823.31
2023-01-11T02:51:35.558Z,101820.77
2023-01-11T02:54:12.960Z,101819.97
2023-01-11T02:56:48.149Z,101822.08
2023-01-11T02:59:23.385Z,101818.59
2023-01-11T03:01:56.173Z,101817.70
2023-01-11T03:04:33.930Z,101817.70
2023-01-11T03:07:18.022Z,101811.90
2023-01-11T03:10:10.877Z,101806.99
2023-01-11T03:13:10.860Z,101802.94
2023-01-11T03:16:02.086Z,101810.66
2023-01-11T03:18:42.932Z,101807.23
2023-01-11T03:21:35.828Z,101816.64
2023-01-11T03:24:31.894Z,101801.38
2023-01-11T03:27:09.711Z,101798.12
2023-01-11T03:29:44.768Z,101784.42
2023-01-11T03:32:28.596Z,101786.97
2023-01-11T03:35:01.552Z,101792.86
2023-01-11T03:37:45.400Z,101783.98
2023-01-11T03:40:20.538Z,101787.77
2023-01-11T03:43:13.960Z,101783.48
2023-01-11T03:45:51.827Z,101790.93
2023-01-11T03:48:27.173Z,101798.12
2023-01-11T03:51:00.967Z,101800.67
2023-01-11T03:53:35.848Z,101806.20
2023-01-11T03:56:11.376Z,101793.48
2023-01-11T03:58:43.859Z,101805.39
2023-01-11T04:01:16.464Z,101793.30
2023-01-11T04:03:48.509Z,101786.46
2023-01-11T04:06:21.308Z,101778.03
2023-01-11T04:08:53.662Z,101765.17
2023-01-11T04:11:26.392Z,101777.00
2023-01-11T04:13:58.787Z,101774.55
2023-01-11T04:16:31.512Z,101758.84
2023-01-11T04:19:03.545Z,101766.11
2023-01-11T04:21:35.488Z,101766.52
2023-01-11T04:24:08.210Z,101772.23
2023-01-11T04:26:40.771Z,101767.33
2023-01-11T04:29:12.966Z,101771.61
2023-01-11T04:31:46.169Z,101772.59
2023-01-11T04:34:17.771Z,101773.63
2023-01-11T04:36:49.528Z,101771.26
2023-01-11T04:39:21.728Z,101756.12
2023-01-11T04:42:11.554Z,101757.33
2023-01-11T04:44:44.310Z,101765.25
2023-01-11T04:47:19.213Z,101755.08
2023-01-11T04:49:52.430Z,101757.17
2023-01-11T04:52:24.868Z,101760.70
2023-01-11T04:54:57.624Z,101761.14
2023-01-11T04:57:30.075Z,101769.38
2023-01-11T05:00:02.402Z,101768.41
2023-01-11T05:02:35.062Z,101780.50
2023-01-11T05:05:08.551Z,101766.57
2023-01-11T05:07:41.090Z,101756.16
2023-01-11T05:10:13.275Z,101749.33
2023-01-11T05:12:47.421Z,101742.47
2023-01-11T05:15:19.981Z,101751.69
2023-01-11T05:17:52.461Z,101743.45
2023-01-11T05:20:25.100Z,101733.45
2023-01-11T05:22:57.848Z,101734.22
2023-01-11T05:25:29.877Z,101736.67
2023-01-11T05:28:02.042Z,101743.78
2023-01-11T05:30:34.635Z,101735.44
2023-01-11T05:33:07.421Z,101747.39
2023-01-11T05:35:40.335Z,101736.65
2023-01-11T05:38:12.795Z,101741.47
2023-01-11T05:40:46.374Z,101748.07
2023-01-11T05:43:18.492Z,101754.99
2023-01-11T05:45:50.825Z,101743.09
2023-01-11T05:48:25.795Z,101745.05
2023-01-11T05:51:01.348Z,101733.05
2023-01-11T05:53:34.494Z,101748.30
2023-01-11T05:56:08.891Z,101742.27
2023-01-11T05:58:41.392Z,101745.76
2023-01-11T06:01:13.982Z,101732.24
2023-01-11T06:03:46.788Z,101740.14
2023-01-11T06:06:20.623Z,101729.61
2023-01-11T06:08:53.724Z,101745.81
2023-01-11T06:11:26.206Z,101744.56
2023-01-11T06:13:58.917Z,101737.19
2023-01-11T06:16:31.411Z,101730.76
2023-01-11T06:19:03.787Z,101734.02
2023-01-11T06:21:36.083Z,101726.16
2023-01-11T06:24:08.861Z,101729.98
2023-01-11T06:26:41.317Z,101740.64
2023-01-11T06:29:14.737Z,101729.52
2023-01-11T06:31:49.438Z,101736.53
2023-01-11T06:34:22.368Z,101724.02
2023-01-11T06:36:55.226Z,101721.55
2023-01-11T06:39:28.139Z,101714.34
2023-01-11T06:42:00.508Z,101718.08
2023-01-11T06:44:33.272Z,101707.98
2023-01-11T06:47:05.699Z,101708.95
2023-01-11T06:49:38.420Z,101700.16
2023-01-11T06:52:11.136Z,101695.06
2023-01-11T06:54:43.552Z,101694.29
2023-01-11T06:57:15.691Z,101702.23
2023-01-11T06:59:47.916Z,101710.17
2023-01-11T07:02:20.461Z,101705.55
2023-01-11T07:04:52.536Z,101702.13
2023-01-11T07:07:24.442Z,101707.46
2023-01-11T07:09:56.631Z,101695.16
2023-01-11T07:12:28.607Z,101700.27
2023-01-11T07:15:00.763Z,101720.02
2023-01-11T07:17:34.037Z,101714.42
2023-01-11T07:20:07.216Z,101707.06
2023-01-11T07:22:39.271Z,101704.14
2023-01-11T07:25:11.696Z,101709.75
2023-01-11T07:27:44.220Z,101700.08
2023-01-11T07:30:16.278Z,101702.17
2023-01-11T07:32:48.441Z,101711.96
2023-01-11T07:35:20.943Z,101720.27
2023-01-11T07:37:53.210Z,101714.16
2023-01-11T07:40:25.643Z,101714.20
2023-01-11T07:43:15.485Z,101708.60
2023-01-11T07:45:52.324Z,101714.09
2023-01-11T07:48:27.409Z,101716.64
2023-01-11T07:50:59.510Z,101714.13
2023-01-11T07:53:31.587Z,101715.17
2023-01-11T07:56:03.677Z,101708.60
2023-01-11T07:58:35.595Z,101704.50
2023-01-11T08:01:07.831Z,101695.34
2023-01-11T08:03:40.035Z,101691.38
2023-01-11T08:06:12.187Z,101689.09
2023-01-11T08:08:45.399Z,101691.65
2023-01-11T08:11:35.750Z,101680.70
2023-01-11T08:14:25.394Z,101679.92
2023-01-11T08:16:57.777Z,101687.84
2023-01-11T08:19:30.256Z,101693.09
2023-01-11T08:22:02.694Z,101691.47
2023-01-11T08:24:38.031Z,101692.28
2023-01-11T08:27:10.004Z,101690.70
2023-01-11T08:29:44.557Z,101674.56
2023-01-11T08:32:17.077Z,101676.63
2023-01-11T08:34:49.637Z,101671.00
2023-01-11T08:37:21.899Z,101668.66
2023-01-11T08:39:56.402Z,101663.06
2023-01-11T08:42:28.000Z,101658.62
2023-01-11T08:44:59.725Z,101655.85
2023-01-11T08:47:33.625Z,101665.13
2023-01-11T08:50:08.439Z,101657.52
2023-01-11T08:52:42.501Z,101660.14
2023-01-11T08:55:13.911Z,101655.31
2023-01-11T08:57:46.274Z,101640.08
2023-01-11T09:00:20.173Z,101660.14
2023-01-11T09:02:52.437Z,101656.77
2023-01-11T09:05:24.913Z,101650.20
2023-01-11T09:07:57.386Z,101660.36
2023-01-11T09:10:30.013Z,101644.74
2023-01-11T09:13:02.011Z,101643.75
2023-01-11T09:15:34.495Z,101648.86
2023-01-11T09:18:07.545Z,101645.34
2023-01-11T09:20:41.590Z,101649.75
2023-01-11T09:23:13.836Z,101648.56
2023-01-11T09:25:46.097Z,101642.11
2023-01-11T09:28:18.649Z,101639.70
2023-01-11T09:30:52.053Z,101629.30
2023-01-11T09:33:24.690Z,101623.16
2023-01-11T09:35:58.888Z,101623.70
2023-01-11T09:38:31.244Z,101615.25
2023-01-11T09:41:13.393Z,101616.11
2023-01-11T09:43:49.851Z,101598.89
2023-01-11T09:46:23.137Z,101612.42
2023-01-11T09:49:03.755Z,101607.45
2023-01-11T09:51:42.532Z,101604.00
2023-01-11T09:54:27.774Z,101593.98
2023-01-11T09:57:13.387Z,101590.20
2023-01-11T10:00:01.001Z,101597.30
2023-01-11T10:02:55.392Z,101583.73
2023-01-11T10:05:59.840Z,101584.95
2023-01-11T10:18:39.531Z,101565.09
2023-01-11T10:18:41.724Z,101575.87
2023-01-11T10:20:24.289Z,101563.97
2023-01-11T10:23:06.694Z,101550.30
2023-01-11T10:25:45.140Z,101558.86
2023-01-11T10:28:28.720Z,101554.92
2023-01-11T10:31:03.920Z,101556.66
2023-01-11T10:34:07.223Z,101548.30
2023-01-11T10:37:01.755Z,101542.36
2023-01-11T10:39:57.160Z,101553.73
2023-01-11T10:42:32.909Z,101547.80
2023-01-11T10:45:24.512Z,101537.63
2023-01-11T10:48:08.040Z,101538.80
2023-01-11T10:50:52.037Z,101525.25
2023-01-11T10:53:32.931Z,101531.13
2023-01-11T10:56:13.782Z,101526.00
2023-01-11T10:59:04.198Z,101511.51
2023-01-11T11:02:03.394Z,101526.80
2023-01-11T11:05:12.824Z,101511.44
2023-01-11T11:08:02.400Z,101519.24
2023-01-11T11:10:46.389Z,101523.33
2023-01-11T11:13:28.347Z,101523.38
2023-01-11T11:16:26.795Z,101511.81
2023-01-11T11:19:00.574Z,101499.47
2023-01-11T11:21:35.653Z,101500.05
2023-01-11T11:24:16.136Z,101493.04
2023-01-11T11:26:51.235Z,101499.89
2023-01-11T11:29:26.668Z,101479.02
2023-01-11T11:32:02.692Z,101478.08
2023-01-11T11:34:36.123Z,101477.83
2023-01-11T11:37:09.856Z,101474.23
2023-01-11T11:39:42.099Z,101478.58
2023-01-11T11:42:18.772Z,101469.55
2023-01-11T11:45:10.013Z,101463.87
2023-01-11T11:47:44.354Z,101476.52
2023-01-11T11:50:43.247Z,101479.84
2023-01-11T11:53:05.214Z,101464.37
2023-01-11T11:55:37.409Z,101465.55
2023-01-11T11:58:12.679Z,101461.94
2023-01-11T12:00:48.064Z,101462.77
2023-01-11T12:03:33.930Z,101459.67
2023-01-11T12:06:08.642Z,101460.48
2023-01-11T12:08:43.786Z,101458.89
2023-01-11T12:11:18.721Z,101452.66
2023-01-11T12:14:00.000Z,101442.38
2023-01-11T12:16:38.101Z,101443.13
2023-01-11T12:19:31.394Z,101447.55
2023-01-11T12:22:24.083Z,101440.88
2023-01-11T12:25:10.907Z,101445.84
2023-01-11T12:28:03.784Z,101440.44
2023-01-11T12:30:53.658Z,101454.75
2023-01-11T12:33:51.422Z,101447.61
2023-01-11T12:36:44.831Z,101445.97
2023-01-11T12:39:43.875Z,101444.92
2023-01-11T12:42:40.949Z,101444.72
2023-01-11T12:45:27.987Z,101434.44
2023-01-11T12:48:20.696Z,101447.89
2023-01-11T12:51:01.298Z,101440.00
2023-01-11T12:53:45.141Z,101434.75
2023-01-11T12:56:23.746Z,101432.63
2023-01-11T12:59:10.219Z,101432.77
2023-01-11T13:01:53.784Z,101432.27
2023-01-11T13:04:54.216Z,101436.45
2023-01-11T13:07:46.863Z,101436.25
2023-01-11T13:10:21.997Z,101430.16
2023-01-11T13:13:17.625Z,101424.85
2023-01-11T13:16:01.837Z,101433.33
2023-01-11T13:18:59.421Z,101435.75
2023-01-11T13:21:38.079Z,101440.98
2023-01-11T13:24:18.831Z,101434.69
2023-01-11T13:26:52.259Z,101425.16
2023-01-11T13:29:27.324Z,101433.87
2023-01-11T13:32:02.480Z,101428.97
2023-01-11T13:34:43.228Z,101439.80
2023-01-11T13:37:20.761Z,101427.58
2023-01-11T13:40:02.866Z,101435.91
2023-01-11T13:42:41.140Z,101432.44
2023-01-11T13:45:28.360Z,101427.20
2023-01-11T13:48:03.467Z,101438.33
2023-01-11T13:50:47.319Z,101424.17
2023-01-11T13:53:27.849Z,101427.33
2023-01-11T14:11:38.228Z,101421.99
2023-01-11T14:14:20.024Z,101414.27
2023-01-11T14:17:19.058Z,101414.13
2023-01-11T14:20:21.655Z,101391.02
2023-01-11T14:26:46.750Z,101395.45
2023-01-11T14:30:02.136Z,101400.69
2023-01-11T14:33:46.667Z,101401.67
2023-01-11T14:36:41.792Z,101392.28
2023-01-11T14:39:39.352Z,101401.67
2023-01-11T14:42:35.793Z,101403.52
2023-01-11T14:45:28.602Z,101404.30
2023-01-11T14:48:25.286Z,101399.32
2023-01-11T14:51:01.172Z,101399.25
2023-01-11T14:53:42.107Z,101406.23
2023-01-11T14:56:36.960Z,101410.17
2023-01-11T14:59:26.832Z,101398.77
2023-01-11T15:02:07.977Z,101401.32
2023-01-11T15:04:57.984Z,101400.50
2023-01-11T15:07:36.794Z,101400.73
2023-01-11T15:10:31.107Z,101397.27
2023-01-11T15:13:09.337Z,101400.05
2023-01-11T15:15:59.862Z,101394.32
2023-01-11T15:18:33.517Z,101392.39
2023-01-11T15:21:06.931Z,101393.41
2023-01-11T15:23:41.771Z,101386.23
2023-01-11T15:26:16.874Z,101397.76
2023-01-11T15:28:58.322Z,101395.08
2023-01-11T15:31:45.964Z,101391.34
2023-01-11T15:34:30.233Z,101399.52
2023-01-11T15:37:06.905Z,101398.94
2023-01-11T15:39:42.062Z,101400.38
2023-01-11T15:42:45.397Z,101410.22
2023-01-11T15:45:54.105Z,101402.42
2023-01-11T15:48:55.971Z,101409.98
2023-01-11T15:52:11.764Z,101399.63
2023-01-11T15:55:09.386Z,101421.11
2023-01-11T15:58:24.234Z,101418.42
2023-01-11T16:01:31.619Z,101400.55
2023-01-11T16:04:27.015Z,101391.91
2023-01-11T16:07:05.939Z,101392.11
2023-01-11T16:09:56.241Z,101416.00
2023-01-11T16:12:59.155Z,101395.65
2023-01-11T16:15:57.105Z,101383.87
2023-01-11T16:18:33.367Z,101381.25
2023-01-11T16:21:10.993Z,101383.87
2023-01-11T16:23:43.833Z,101383.77
2023-01-11T16:26:21.629Z,101368.45
2023-01-11T16:29:00.482Z,101366.88
2023-01-11T16:32:01.785Z,101362.69
2023-01-11T16:34:43.987Z,101358.60
2023-01-11T16:37:25.933Z,101363.64
2023-01-11T16:40:02.498Z,101348.45
2023-01-11T16:42:38.546Z,101353.30
2023-01-11T16:45:16.828Z,101350.81
2023-01-11T16:48:08.405Z,101347.44
2023-01-11T16:50:43.854Z,101355.23
2023-01-11T16:53:19.042Z,101354.31
2023-01-11T16:56:01.477Z,101355.23
2023-01-11T16:58:37.433Z,101343.41
2023-01-11T17:01:12.578Z,101342.00
2023-01-11T17:03:52.456Z,101346.42
2023-01-11T17:06:28.340Z,101339.77
2023-01-11T17:09:10.915Z,101335.51
2023-01-11T17:11:48.757Z,101338.19
2023-01-11T17:14:58.585Z,101336.62
2023-01-11T17:17:34.087Z,101333.34
2023-01-11T17:20:09.307Z,101328.32
2023-01-11T17:22:44.553Z,101324.98
2023-01-11T17:25:20.121Z,101315.73
2023-01-11T17:27:58.083Z,101316.72
2023-01-11T17:30:31.318Z,101309.99
2023-01-11T17:33:03.895Z,101308.47
2023-01-11T17:35:38.908Z,101303.48
2023-01-11T17:38:14.416Z,101305.55
2023-01-11T17:40:47.262Z,101305.67
2023-01-11T17:43:40.819Z,101304.21
2023-01-11T17:46:24.384Z,101296.61
2023-01-11T17:48:59.580Z,101300.89
2023-01-11T17:51:34.859Z,101300.25
2023-01-11T17:54:07.824Z,101296.75
2023-01-11T17:56:45.691Z,101291.70
2023-01-11T17:59:24.066Z,101288.38
2023-01-11T18:02:02.838Z,101287.47
2023-01-11T18:04:34.949Z,101290.79
2023-01-11T18:07:18.690Z,101279.91
2023-01-11T18:09:53.485Z,101278.91
2023-01-11T18:12:28.695Z,101274.56
2023-01-11T18:15:03.117Z,101282.17
2023-01-11T18:17:39.163Z,101280.56
2023-01-11T18:20:32.610Z,101282.17
2023-01-11T18:23:16.454Z,101283.88
2023-01-11T18:25:49.069Z,101278.59
2023-01-11T18:28:24.039Z,101283.06
2023-01-11T18:31:02.310Z,101287.20
2023-01-11T18:33:35.495Z,101293.98
2023-01-11T18:36:10.650Z,101285.35
2023-01-11T18:38:42.708Z,101295.58
2023-01-11T18:41:34.152Z,101304.16
2023-01-11T18:44:06.172Z,101304.27
2023-01-11T18:46:38.489Z,101305.95
2023-01-11T18:49:12.684Z,101310.23
2023-01-11T18:51:48.031Z,101308.63
2023-01-11T18:54:20.836Z,101312.16
2023-01-11T18:56:52.942Z,101314.77
2023-01-11T18:59:25.169Z,101307.98
2023-01-11T19:02:15.779Z,101314.70
2023-01-11T19:04:34.130Z,101303.63
2023-01-11T19:07:06.316Z,101308.80
2023-01-11T19:09:38.284Z,101308.09
2023-01-11T19:12:10.586Z,101312.16
2023-01-11T19:14:43.110Z,101312.09
2023-01-11T19:17:15.362Z,101314.70
2023-01-11T19:19:47.403Z,101311.23
2023-01-11T19:22:23.269Z,101301.66
2023-01-11T19:24:53.674Z,101306.01
2023-01-11T19:27:25.821Z,101323.08
2023-01-11T19:29:58.366Z,101299.16
2023-01-11T19:32:30.355Z,101306.06
2023-01-11T19:35:02.204Z,101312.97
2023-01-11T19:37:34.314Z,101312.09
2023-01-11T19:40:06.769Z,101303.63
2023-01-11T19:42:40.363Z,101308.41
2023-01-11T19:45:12.368Z,101295.58
2023-01-11T19:47:44.325Z,101294.48
2023-01-11T19:50:17.239Z,101279.03
2023-01-11T19:52:49.653Z,101278.14
2023-01-11T19:55:21.863Z,101286.63
2023-01-11T19:57:53.690Z,101272.91
2023-01-11T20:00:27.024Z,101282.28
2023-01-11T20:03:00.806Z,101278.78
2023-01-11T20:05:32.096Z,101276.17
2023-01-11T20:08:03.654Z,101283.44
2023-01-11T20:10:35.897Z,101273.80
2023-01-11T20:13:07.882Z,101272.58
2023-01-11T20:15:39.894Z,101275.05
2023-01-11T20:18:11.865Z,101269.05
2023-01-11T20:20:43.826Z,101274.10
2023-01-11T20:23:16.060Z,101265.62
2023-01-11T20:25:48.238Z,101274.28
2023-01-11T20:28:20.437Z,101275.47
2023-01-11T20:30:52.495Z,101265.09
2023-01-11T20:33:24.515Z,101265.03
2023-01-11T20:35:56.565Z,101276.17
2023-01-11T20:38:29.161Z,101267.71
2023-01-11T20:41:01.179Z,101256.80
2023-01-11T20:43:33.061Z,101261.90
2023-01-11T20:46:05.105Z,101255.20
2023-01-11T20:48:37.380Z,101243.25
2023-01-11T20:51:09.367Z,101248.69
2023-01-11T20:53:41.579Z,101244.22
2023-01-11T20:56:13.495Z,101240.84
2023-01-11T20:58:47.107Z,101243.57
2023-01-11T21:01:22.083Z,101246.06
2023-01-11T21:03:55.505Z,101246.95
2023-01-11T21:06:28.222Z,101247.02
2023-01-11T21:09:01.754Z,101245.25
2023-01-11T21:11:34.272Z,101254.68
2023-01-11T21:14:08.434Z,101250.47
2023-01-11T21:16:44.419Z,101248.23
2023-01-11T21:19:17.648Z,101240.48
2023-01-11T21:21:49.893Z,101245.42
2023-01-11T21:24:22.171Z,101243.83
2023-01-11T21:26:54.301Z,101252.18
2023-01-11T21:29:26.194Z,101250.47
2023-01-11T21:31:58.205Z,101246.19
2023-01-11T21:34:30.108Z,101240.13
2023-01-11T21:37:02.096Z,101237.63
2023-01-11T21:39:34.233Z,101238.52
2023-01-11T21:42:06.282Z,101238.46
2023-01-11T21:44:38.363Z,101235.96
2023-01-11T21:47:11.532Z,101234.29
2023-01-11T21:49:43.823Z,101230.03
2023-01-11T21:52:15.857Z,101236.02
2023-01-11T21:54:49.409Z,101234.29
2023-01-11T21:57:21.701Z,101239.40
2023-01-11T21:59:53.858Z,101246.30
2023-01-11T22:02:25.744Z,101231.81
2023-01-11T22:04:58.604Z,101240.51
2023-01-11T22:07:33.095Z,101233.78
2023-01-11T22:10:05.780Z,101224.33
2023-01-11T22:12:37.800Z,101224.33
2023-01-11T22:15:10.547Z,101235.69
2023-01-11T22:17:42.659Z,101233.90
2023-01-11T22:20:16.252Z,101236.52
2023-01-11T22:22:48.359Z,101230.58
2023-01-11T22:25:20.322Z,101232.30
2023-01-11T22:27:52.263Z,101230.41
2023-01-11T22:30:24.368Z,101231.28
2023-01-11T22:32:56.347Z,101215.95
2023-01-11T22:35:28.567Z,101219.52
2023-01-11T22:38:00.557Z,101214.41
2023-01-11T22:40:32.634Z,101214.48
2023-01-11T22:43:04.770Z,101213.61
2023-01-11T22:45:36.775Z,101216.34
2023-01-11T22:48:08.839Z,101213.06
2023-01-11T22:50:40.870Z,101206.30
2023-01-11T22:53:13.099Z,101200.17
2023-01-11T22:55:45.495Z,101203.55
2023-01-11T22:58:17.529Z,101201.90
2023-01-11T23:00:50.241Z,101202.02
2023-01-11T23:03:22.278Z,101185.02
2023-01-11T23:05:54.395Z,101182.44
2023-01-11T23:08:26.482Z,101179.05
2023-01-11T23:11:02.037Z,101172.62
2023-01-11T23:13:52.019Z,101162.33
2023-01-11T23:16:24.811Z,101175.06
2023-01-11T23:18:57.094Z,101173.46
2023-01-11T23:21:29.246Z,101175.19
2023-01-11T23:24:03.221Z,101170.91
2023-01-11T23:26:35.592Z,101165.84
2023-01-11T23:29:08.053Z,101171.12
2023-01-11T23:31:40.137Z,101162.63
2023-01-11T23:34:13.336Z,101160.30
2023-01-11T23:36:45.375Z,101161.95
2023-01-11T23:39:21.517Z,101152.67
2023-01-11T23:42:10.959Z,101160.24
2023-01-11T23:44:43.232Z,101161.18
2023-01-11T23:47:25.327Z,101157.95
2023-01-11T23:50:01.098Z,101159.34
2023-01-11T23:52:34.116Z,101161.08
2023-01-11T23:55:06.992Z,101157.56
2023-01-11T23:57:40.553Z,101161.95
